x

Halibut Bank (46146) Wave Buoy

8:00 - Wed 1st Mar 2017 All times are PST. -8 hours from GMT.

  • Sig Wave height 1.0ft
  • Peak Period 4s
  • Wind
    13mph
  • Sea Temp 43°f
  • Aire Temp 43°f
  • Sea Pressure 1024.9mb
  • Halibut Bank
  • Halibut Bank

More Historic Weather Station data

Upgrade to MSW Pro to gain access to the past 30 days of data for over 8000 Wavebouys and Weather Stations around the globe.

Join Pro

Comparision Forecast

View Surf forecast
   
mié 03/01 8:00 1ft 4s 13
mph
1024.9mb 43f 43f
7:00 1.3ft 4s 9 11 mph 1023.9mb 44f 43f
6:00 1.3ft 3s 11 13 mph 1022.8mb 44f 43f
5:00 1.3ft 3s 18 22 mph 1021.8mb 44f 43f
4:00 1.3ft 4s 18 22 mph 1021mb 44f 44f
3:00 1.3ft 4s 9 11 mph 1020.3mb 44f 44f
2:00 1.6ft 5s 2
mph
1019.8mb 44f 44f
1:00 2ft 4s 7 9 mph 1019.1mb 45f 45f
12:00 2ft 5s 9 11 mph 1018.6mb 45f 44f
mar 02/28 11:00 3ft 5s 9
mph
1018mb 44f 43f
10:00 3ft 4s 13 18 mph 1017.7mb 44f 43f
9:00 3ft 4s 20 22 mph 1017.2mb 44f 43f
8:00 3.5ft 4s 20 25 mph 1017.2mb 44f 43f
7:00 3ft 4s 20 25 mph 1017.4mb 44f 41f
6:00 2.5ft 4s 22 27 mph 1017.5mb 44f 39f
5:00 2.5ft 3s 22 27 mph 1018.1mb 44f 40f
4:00 1.6ft 3s 20 22 mph 1018.4mb 44f 40f
2:00 1ft 2s 16 18 mph 1018.5mb 44f 39f
1:00 1ft 2s 13 16 mph 1018.4mb 44f 38f
12:00 0.7ft 2s 11 13 mph 1018.4mb 44f 38f
11:00 0.7ft 3s 9 11 mph 1017.7mb 44f 37f
10:00 0.7ft 2s 9 11 mph 1016.9mb 44f 37f
9:00 0.7ft 2s 11
mph
1016mb 44f 36f
8:00 0.7ft 2s 11 16 mph 1014.9mb 44f 35f
7:00 0.7ft 2s 2 4 mph 1013.8mb 43f 37f
5:00 0.7ft 2s 7 11 mph 1012.2mb 43f 36f
4:00 0.7ft 3s 9
mph
1011.4mb 43f 37f
3:00 1ft 2s 9 11 mph 1010.7mb 43f 37f
2:00 0.7ft 5s 7 11 mph 1010.3mb 43f 37f
1:00 0.7ft 3s 9 11 mph 1009.7mb 43f 37f
12:00 0.3ft 2s 4 7 mph 1009.3mb 43f 37f
lun 02/27 11:00 0.7ft 2s 7 9 mph 1008.5mb 43f 37f
10:00 0.7ft 3s 13 16 mph 1008mb 44f 37f
9:00 0.7ft 2s 9 13 mph 1007.4mb 43f 38f
8:00 0.3ft 2s 11 13 mph 1006.9mb 43f 39f
7:00 0.7ft 5s 11 16 mph 1006.4mb 43f 39f
6:00 0.7ft 2s 9 11 mph 1006mb 44f 38f
5:00 0.7ft 4s 13 16 mph 1005.7mb 44f 39f
4:00 0.7ft 3s 7 9 mph 1005.7mb 44f 37f
3:00 0.7ft 3s 2 4 mph 1005.9mb 44f 37f
2:00 1ft 4s 4 7 mph 1006mb 44f 37f
1:00 1ft 4s 4 7 mph 1006.1mb 44f 35f
12:00 0.7ft 3s 7 9 mph 1006.5mb 43f 35f
11:00 0.7ft 3s 9 11 mph 1006.6mb 43f 35f
10:00 1ft 2s 7 9 mph 1006.8mb 43f 34f
9:00 1ft 3s 9 13 mph 1006.6mb 43f 35f
8:00 1ft 3s 13 18 mph 1006.4mb 43f 35f
7:00 1ft 3s 13 18 mph 1006.3mb 43f 37f
6:00 1ft 2s 13 16 mph 1006.5mb 43f 38f
5:00 0.7ft 2s 13
mph
1006.4mb 43f 39f
4:00 0.7ft 3s 9 11 mph 1006.7mb 43f 39f
3:00 0.7ft 2s 7 9 mph 1007.2mb 43f 39f
2:00 1ft 3s 4 7 mph 1007.8mb 43f 39f
1:00 1ft 3s 7 9 mph 1008mb 43f 40f
12:00 1ft 4s 2 4 mph 1008.2mb 43f 41f
dom 02/26 11:00 1.3ft 3s  -  2 mph 1008.2mb 44f 40f
10:00 2ft 4s 7
mph
1008.5mb 44f 41f
9:00 2.5ft 4s 18 20 mph 1008.2mb 44f 42f
8:00 2.5ft 4s 16 18 mph 1008mb 44f 43f
7:00 2.5ft 4s 18 22 mph 1007.8mb 44f 43f
6:00 2.5ft 4s 18 22 mph 1007.4mb 44f 44f
5:00 2.5ft 4s 18 22 mph 1007.3mb 44f 44f
4:00 2.5ft 4s 18 22 mph 1007.4mb 44f 44f
3:00 2.5ft 4s 18 22 mph 1007.4mb 44f 43f
2:00 2.5ft 4s 20 22 mph 1007.5mb 44f 42f
1:00 1.6ft 3s 18 22 mph 1007.9mb 44f 41f
12:00 1.6ft 3s 18 22 mph 1008.4mb 44f 40f
11:00 1.6ft 3s 18 22 mph 1008.7mb 44f 40f
10:00 1.3ft 3s 13 18 mph 1008.7mb 44f 39f
9:00 1.3ft 3s 13 16 mph 1008.4mb 44f 38f
8:00 1ft 4s 11 13 mph 1007.9mb 44f 38f
7:00 1.3ft 4s 9
mph
1007.5mb 44f 38f
6:00 1.6ft 4s 9 11 mph 1007.4mb 44f 39f
5:00 1.6ft 3s 18 20 mph 1006.9mb 44f 39f
4:00 1.6ft 3s 16 18 mph 1007.4mb 44f 38f
3:00 2ft 3s 18 22 mph 1007.7mb 44f 38f
2:00 1.6ft 3s 20 22 mph 1008.6mb 44f 37f
1:00 1ft 2s 18 20 mph 1009.4mb 44f 37f
12:00 0.7ft 2s 16 18 mph 1010.4mb 44f 37f
sáb 02/25 11:00 1ft 2s 13 16 mph 1011.4mb 44f 37f
10:00 0.3ft 2s 13 16 mph 1012.2mb 44f 37f
9:00 0.7ft 3s 9 13 mph 1013mb 44f 38f
8:00 0.3ft 2s 9 11 mph 1013.8mb 44f 39f
7:00 0.7ft 6s 9 13 mph 1014.8mb 44f 39f
6:00 0.3ft 2s 9
mph
1015.6mb 44f 41f